sensor_id;sensor_type;location;lat;lon;timestamp;P1;durP1;ratioP1;P2;durP2;ratioP2
5690;SDS011;2870;42.680;23.364;2022-08-25T00:00:20;29.10;;;13.27;;
5690;SDS011;2870;42.680;23.364;2022-08-25T00:02:47;27.10;;;12.87;;
5690;SDS011;2870;42.680;23.364;2022-08-25T00:05:14;34.77;;;12.50;;
5690;SDS011;2870;42.680;23.364;2022-08-25T00:07:41;34.70;;;12.97;;
5690;SDS011;2870;42.680;23.364;2022-08-25T00:10:08;28.87;;;12.60;;
5690;SDS011;2870;42.680;23.364;2022-08-25T00:12:35;28.33;;;12.50;;
5690;SDS011;2870;42.680;23.364;2022-08-25T00:15:04;32.10;;;13.60;;
5690;SDS011;2870;42.680;23.364;2022-08-25T00:17:33;27.50;;;12.90;;
5690;SDS011;2870;42.680;23.364;2022-08-25T00:20:00;28.63;;;13.30;;
5690;SDS011;2870;42.680;23.364;2022-08-25T00:22:26;31.53;;;13.73;;
5690;SDS011;2870;42.680;23.364;2022-08-25T00:24:54;25.03;;;12.33;;
5690;SDS011;2870;42.680;23.364;2022-08-25T00:27:21;22.73;;;12.43;;
5690;SDS011;2870;42.680;23.364;2022-08-25T00:29:47;25.10;;;12.70;;
5690;SDS011;2870;42.680;23.364;2022-08-25T00:32:15;34.23;;;14.27;;
5690;SDS011;2870;42.680;23.364;2022-08-25T00:34:43;26.30;;;12.63;;
5690;SDS011;2870;42.680;23.364;2022-08-25T00:37:10;27.30;;;12.57;;
5690;SDS011;2870;42.680;23.364;2022-08-25T00:39:37;27.73;;;12.00;;
5690;SDS011;2870;42.680;23.364;2022-08-25T00:42:05;28.67;;;13.70;;
5690;SDS011;2870;42.680;23.364;2022-08-25T00:44:33;24.13;;;11.20;;
5690;SDS011;2870;42.680;23.364;2022-08-25T00:47:01;25.53;;;13.53;;
5690;SDS011;2870;42.680;23.364;2022-08-25T00:49:31;26.40;;;11.87;;
5690;SDS011;2870;42.680;23.364;2022-08-25T00:52:03;37.93;;;13.33;;
5690;SDS011;2870;42.680;23.364;2022-08-25T00:54:38;33.03;;;13.37;;
5690;SDS011;2870;42.680;23.364;2022-08-25T00:57:08;26.07;;;11.77;;
5690;SDS011;2870;42.680;23.364;2022-08-25T00:59:37;34.43;;;12.13;;
5690;SDS011;2870;42.680;23.364;2022-08-25T01:02:05;31.87;;;13.80;;
5690;SDS011;2870;42.680;23.364;2022-08-25T01:04:34;43.67;;;13.83;;
5690;SDS011;2870;42.680;23.364;2022-08-25T01:07:03;26.60;;;11.93;;
5690;SDS011;2870;42.680;23.364;2022-08-25T01:09:31;30.70;;;12.77;;
5690;SDS011;2870;42.680;23.364;2022-08-25T01:12:00;35.83;;;11.50;;
5690;SDS011;2870;42.680;23.364;2022-08-25T01:14:27;27.73;;;11.97;;
5690;SDS011;2870;42.680;23.364;2022-08-25T01:16:56;27.47;;;12.90;;
5690;SDS011;2870;42.680;23.364;2022-08-25T01:19:23;27.90;;;13.80;;
5690;SDS011;2870;42.680;23.364;2022-08-25T01:21:54;25.77;;;12.93;;
5690;SDS011;2870;42.680;23.364;2022-08-25T01:24:22;26.60;;;11.67;;
5690;SDS011;2870;42.680;23.364;2022-08-25T01:26:51;20.30;;;11.67;;
5690;SDS011;2870;42.680;23.364;2022-08-25T01:29:18;24.90;;;11.60;;
5690;SDS011;2870;42.680;23.364;2022-08-25T01:31:50;27.33;;;12.03;;
5690;SDS011;2870;42.680;23.364;2022-08-25T01:34:20;23.73;;;11.80;;
5690;SDS011;2870;42.680;23.364;2022-08-25T01:36:47;25.63;;;11.20;;
5690;SDS011;2870;42.680;23.364;2022-08-25T01:39:15;31.43;;;13.03;;
5690;SDS011;2870;42.680;23.364;2022-08-25T01:41:45;39.53;;;13.17;;
5690;SDS011;2870;42.680;23.364;2022-08-25T01:44:19;33.30;;;13.07;;
5690;SDS011;2870;42.680;23.364;2022-08-25T01:46:46;28.50;;;13.00;;
5690;SDS011;2870;42.680;23.364;2022-08-25T01:49:13;30.77;;;12.00;;
5690;SDS011;2870;42.680;23.364;2022-08-25T01:51:41;30.43;;;13.90;;
5690;SDS011;2870;42.680;23.364;2022-08-25T01:54:12;33.43;;;14.53;;
5690;SDS011;2870;42.680;23.364;2022-08-25T01:56:40;39.73;;;14.77;;
5690;SDS011;2870;42.680;23.364;2022-08-25T01:59:06;30.40;;;14.20;;
5690;SDS011;2870;42.680;23.364;2022-08-25T02:01:33;36.97;;;14.97;;
5690;SDS011;2870;42.680;23.364;2022-08-25T02:04:00;24.57;;;14.47;;
5690;SDS011;2870;42.680;23.364;2022-08-25T02:06:28;33.47;;;14.03;;
5690;SDS011;2870;42.680;23.364;2022-08-25T02:08:57;42.13;;;13.13;;
5690;SDS011;2870;42.680;23.364;2022-08-25T02:11:26;29.97;;;12.27;;
5690;SDS011;2870;42.680;23.364;2022-08-25T02:13:55;29.67;;;12.63;;
5690;SDS011;2870;42.680;23.364;2022-08-25T02:16:23;20.47;;;12.50;;
5690;SDS011;2870;42.680;23.364;2022-08-25T02:18:53;31.00;;;11.63;;
5690;SDS011;2870;42.680;23.364;2022-08-25T02:21:21;24.83;;;13.00;;
5690;SDS011;2870;42.680;23.364;2022-08-25T02:23:48;38.17;;;13.30;;
5690;SDS011;2870;42.680;23.364;2022-08-25T02:26:15;27.33;;;12.50;;
5690;SDS011;2870;42.680;23.364;2022-08-25T02:28:44;24.77;;;13.03;;
5690;SDS011;2870;42.680;23.364;2022-08-25T02:31:12;32.60;;;12.47;;
5690;SDS011;2870;42.680;23.364;2022-08-25T02:33:39;29.13;;;12.17;;
5690;SDS011;2870;42.680;23.364;2022-08-25T02:36:06;23.73;;;11.60;;
5690;SDS011;2870;42.680;23.364;2022-08-25T02:38:34;43.77;;;11.77;;
5690;SDS011;2870;42.680;23.364;2022-08-25T02:41:09;32.23;;;12.80;;
5690;SDS011;2870;42.680;23.364;2022-08-25T02:43:37;33.70;;;12.20;;
5690;SDS011;2870;42.680;23.364;2022-08-25T02:46:05;22.70;;;11.83;;
5690;SDS011;2870;42.680;23.364;2022-08-25T02:48:33;31.57;;;11.70;;
5690;SDS011;2870;42.680;23.364;2022-08-25T02:51:01;31.90;;;12.20;;
5690;SDS011;2870;42.680;23.364;2022-08-25T02:53:28;30.67;;;13.50;;
5690;SDS011;2870;42.680;23.364;2022-08-25T02:55:55;32.27;;;13.37;;
5690;SDS011;2870;42.680;23.364;2022-08-25T02:58:22;30.83;;;11.37;;
5690;SDS011;2870;42.680;23.364;2022-08-25T03:00:49;26.50;;;12.00;;
5690;SDS011;2870;42.680;23.364;2022-08-25T03:03:17;22.20;;;11.50;;
5690;SDS011;2870;42.680;23.364;2022-08-25T03:05:45;23.47;;;11.93;;
5690;SDS011;2870;42.680;23.364;2022-08-25T03:08:13;56.50;;;13.40;;
5690;SDS011;2870;42.680;23.364;2022-08-25T03:10:41;29.50;;;11.70;;
5690;SDS011;2870;42.680;23.364;2022-08-25T03:13:08;29.07;;;11.60;;
5690;SDS011;2870;42.680;23.364;2022-08-25T03:15:35;24.73;;;11.40;;
5690;SDS011;2870;42.680;23.364;2022-08-25T03:18:02;32.47;;;13.00;;
5690;SDS011;2870;42.680;23.364;2022-08-25T03:20:30;30.37;;;11.83;;
5690;SDS011;2870;42.680;23.364;2022-08-25T03:23:01;30.00;;;11.60;;
5690;SDS011;2870;42.680;23.364;2022-08-25T03:25:28;26.33;;;11.80;;
5690;SDS011;2870;42.680;23.364;2022-08-25T03:28:12;32.27;;;11.97;;
5690;SDS011;2870;42.680;23.364;2022-08-25T03:30:39;25.97;;;10.70;;
5690;SDS011;2870;42.680;23.364;2022-08-25T03:33:07;36.33;;;12.13;;
5690;SDS011;2870;42.680;23.364;2022-08-25T03:35:34;29.23;;;11.63;;
5690;SDS011;2870;42.680;23.364;2022-08-25T03:38:02;29.43;;;11.77;;
5690;SDS011;2870;42.680;23.364;2022-08-25T03:40:29;30.73;;;10.90;;
5690;SDS011;2870;42.680;23.364;2022-08-25T03:42:56;35.53;;;12.00;;
5690;SDS011;2870;42.680;23.364;2022-08-25T03:45:23;28.00;;;13.13;;
5690;SDS011;2870;42.680;23.364;2022-08-25T03:47:51;30.77;;;12.00;;
5690;SDS011;2870;42.680;23.364;2022-08-25T03:50:19;19.57;;;11.27;;
5690;SDS011;2870;42.680;23.364;2022-08-25T03:52:49;26.60;;;11.07;;
5690;SDS011;2870;42.680;23.364;2022-08-25T03:55:19;31.47;;;11.60;;
5690;SDS011;2870;42.680;23.364;2022-08-25T03:57:47;28.53;;;11.83;;
5690;SDS011;2870;42.680;23.364;2022-08-25T04:00:14;43.33;;;12.43;;
5690;SDS011;2870;42.680;23.364;2022-08-25T04:02:41;27.67;;;11.20;;
5690;SDS011;2870;42.680;23.364;2022-08-25T04:05:08;27.90;;;12.13;;
5690;SDS011;2870;42.680;23.364;2022-08-25T04:07:35;26.47;;;10.97;;
5690;SDS011;2870;42.680;23.364;2022-08-25T04:10:03;35.43;;;11.93;;
5690;SDS011;2870;42.680;23.364;2022-08-25T04:12:31;25.97;;;12.17;;
5690;SDS011;2870;42.680;23.364;2022-08-25T04:14:58;22.60;;;11.60;;
5690;SDS011;2870;42.680;23.364;2022-08-25T04:17:25;35.07;;;12.10;;
5690;SDS011;2870;42.680;23.364;2022-08-25T04:19:52;29.20;;;12.03;;
5690;SDS011;2870;42.680;23.364;2022-08-25T04:22:19;28.47;;;12.90;;
5690;SDS011;2870;42.680;23.364;2022-08-25T04:24:46;26.53;;;13.90;;
5690;SDS011;2870;42.680;23.364;2022-08-25T04:27:13;55.17;;;19.90;;
5690;SDS011;2870;42.680;23.364;2022-08-25T04:29:41;45.30;;;19.50;;
5690;SDS011;2870;42.680;23.364;2022-08-25T04:32:08;28.60;;;19.07;;
5690;SDS011;2870;42.680;23.364;2022-08-25T04:34:35;49.60;;;21.80;;
5690;SDS011;2870;42.680;23.364;2022-08-25T04:37:02;35.80;;;21.43;;
5690;SDS011;2870;42.680;23.364;2022-08-25T04:39:32;44.23;;;22.53;;
5690;SDS011;2870;42.680;23.364;2022-08-25T04:41:59;45.47;;;20.10;;
5690;SDS011;2870;42.680;23.364;2022-08-25T04:44:26;42.47;;;21.00;;
5690;SDS011;2870;42.680;23.364;2022-08-25T04:46:55;30.93;;;18.60;;
5690;SDS011;2870;42.680;23.364;2022-08-25T04:49:21;41.77;;;18.60;;
5690;SDS011;2870;42.680;23.364;2022-08-25T04:51:48;39.10;;;18.10;;
5690;SDS011;2870;42.680;23.364;2022-08-25T04:54:15;37.20;;;16.20;;
5690;SDS011;2870;42.680;23.364;2022-08-25T04:56:45;33.93;;;15.37;;
5690;SDS011;2870;42.680;23.364;2022-08-25T04:59:13;33.03;;;15.50;;
5690;SDS011;2870;42.680;23.364;2022-08-25T05:01:42;33.20;;;16.23;;
5690;SDS011;2870;42.680;23.364;2022-08-25T05:04:13;28.80;;;14.97;;
5690;SDS011;2870;42.680;23.364;2022-08-25T05:06:41;29.20;;;15.70;;
5690;SDS011;2870;42.680;23.364;2022-08-25T05:09:09;31.47;;;13.83;;
5690;SDS011;2870;42.680;23.364;2022-08-25T05:11:36;30.17;;;15.80;;
5690;SDS011;2870;42.680;23.364;2022-08-25T05:14:03;31.27;;;13.53;;
5690;SDS011;2870;42.680;23.364;2022-08-25T05:16:35;29.17;;;12.80;;
5690;SDS011;2870;42.680;23.364;2022-08-25T05:19:03;22.90;;;10.97;;
5690;SDS011;2870;42.680;23.364;2022-08-25T05:21:31;31.50;;;13.40;;
5690;SDS011;2870;42.680;23.364;2022-08-25T05:23:59;33.97;;;12.40;;
5690;SDS011;2870;42.680;23.364;2022-08-25T05:26:28;17.30;;;11.77;;
5690;SDS011;2870;42.680;23.364;2022-08-25T05:28:56;37.73;;;13.47;;
5690;SDS011;2870;42.680;23.364;2022-08-25T05:31:24;29.80;;;13.87;;
5690;SDS011;2870;42.680;23.364;2022-08-25T05:33:53;32.17;;;12.50;;
5690;SDS011;2870;42.680;23.364;2022-08-25T05:36:21;23.80;;;12.47;;
5690;SDS011;2870;42.680;23.364;2022-08-25T05:38:50;33.27;;;13.90;;
5690;SDS011;2870;42.680;23.364;2022-08-25T05:41:18;38.80;;;14.60;;
5690;SDS011;2870;42.680;23.364;2022-08-25T05:43:47;29.20;;;12.23;;
5690;SDS011;2870;42.680;23.364;2022-08-25T05:46:15;31.80;;;13.67;;
5690;SDS011;2870;42.680;23.364;2022-08-25T05:48:43;23.73;;;11.60;;
5690;SDS011;2870;42.680;23.364;2022-08-25T05:51:10;39.17;;;14.53;;
5690;SDS011;2870;42.680;23.364;2022-08-25T05:53:39;28.47;;;11.80;;
5690;SDS011;2870;42.680;23.364;2022-08-25T05:56:09;34.10;;;13.03;;
5690;SDS011;2870;42.680;23.364;2022-08-25T05:58:36;32.30;;;13.03;;
5690;SDS011;2870;42.680;23.364;2022-08-25T06:01:04;38.47;;;13.10;;
5690;SDS011;2870;42.680;23.364;2022-08-25T06:03:45;30.30;;;12.50;;
5690;SDS011;2870;42.680;23.364;2022-08-25T06:06:12;27.00;;;13.53;;
5690;SDS011;2870;42.680;23.364;2022-08-25T06:08:40;37.47;;;15.20;;
5690;SDS011;2870;42.680;23.364;2022-08-25T06:11:06;27.23;;;13.40;;
5690;SDS011;2870;42.680;23.364;2022-08-25T06:13:35;28.50;;;13.23;;
5690;SDS011;2870;42.680;23.364;2022-08-25T06:16:01;31.90;;;12.30;;
5690;SDS011;2870;42.680;23.364;2022-08-25T06:18:29;37.20;;;12.80;;
5690;SDS011;2870;42.680;23.364;2022-08-25T06:20:56;32.37;;;13.03;;
5690;SDS011;2870;42.680;23.364;2022-08-25T06:23:22;31.57;;;15.47;;
5690;SDS011;2870;42.680;23.364;2022-08-25T06:25:50;25.13;;;12.70;;
5690;SDS011;2870;42.680;23.364;2022-08-25T06:28:19;34.20;;;13.50;;
5690;SDS011;2870;42.680;23.364;2022-08-25T06:30:46;26.10;;;12.03;;
5690;SDS011;2870;42.680;23.364;2022-08-25T06:33:13;32.97;;;13.93;;
5690;SDS011;2870;42.680;23.364;2022-08-25T06:35:40;25.57;;;12.73;;
5690;SDS011;2870;42.680;23.364;2022-08-25T06:38:07;28.87;;;12.63;;
5690;SDS011;2870;42.680;23.364;2022-08-25T06:40:34;26.50;;;11.27;;
5690;SDS011;2870;42.680;23.364;2022-08-25T06:43:02;24.47;;;12.27;;
5690;SDS011;2870;42.680;23.364;2022-08-25T06:45:34;31.27;;;11.83;;
5690;SDS011;2870;42.680;23.364;2022-08-25T06:48:01;30.20;;;11.63;;
5690;SDS011;2870;42.680;23.364;2022-08-25T06:50:27;31.87;;;12.50;;
5690;SDS011;2870;42.680;23.364;2022-08-25T06:52:54;27.73;;;11.47;;
5690;SDS011;2870;42.680;23.364;2022-08-25T06:55:21;23.47;;;11.47;;
5690;SDS011;2870;42.680;23.364;2022-08-25T06:57:50;38.63;;;14.60;;
5690;SDS011;2870;42.680;23.364;2022-08-25T07:00:18;33.97;;;12.13;;
5690;SDS011;2870;42.680;23.364;2022-08-25T07:02:46;31.73;;;14.50;;
5690;SDS011;2870;42.680;23.364;2022-08-25T07:05:13;26.70;;;12.00;;
5690;SDS011;2870;42.680;23.364;2022-08-25T07:07:40;21.67;;;11.57;;
5690;SDS011;2870;42.680;23.364;2022-08-25T07:10:09;36.70;;;10.70;;
5690;SDS011;2870;42.680;23.364;2022-08-25T07:12:36;28.67;;;10.80;;
5690;SDS011;2870;42.680;23.364;2022-08-25T07:15:03;28.93;;;12.37;;
5690;SDS011;2870;42.680;23.364;2022-08-25T07:17:30;32.93;;;13.40;;
5690;SDS011;2870;42.680;23.364;2022-08-25T07:19:58;42.23;;;12.83;;
5690;SDS011;2870;42.680;23.364;2022-08-25T07:22:25;27.73;;;13.13;;
5690;SDS011;2870;42.680;23.364;2022-08-25T07:24:52;37.07;;;13.93;;
5690;SDS011;2870;42.680;23.364;2022-08-25T07:27:18;19.20;;;12.00;;
5690;SDS011;2870;42.680;23.364;2022-08-25T07:29:46;21.33;;;11.10;;
5690;SDS011;2870;42.680;23.364;2022-08-25T07:32:14;28.50;;;11.70;;
5690;SDS011;2870;42.680;23.364;2022-08-25T07:34:40;28.80;;;10.40;;
5690;SDS011;2870;42.680;23.364;2022-08-25T07:37:26;24.20;;;10.90;;
5690;SDS011;2870;42.680;23.364;2022-08-25T07:39:53;29.30;;;11.60;;
5690;SDS011;2870;42.680;23.364;2022-08-25T07:42:19;28.97;;;12.17;;
5690;SDS011;2870;42.680;23.364;2022-08-25T07:44:46;26.33;;;11.57;;
5690;SDS011;2870;42.680;23.364;2022-08-25T07:47:13;24.73;;;12.80;;
5690;SDS011;2870;42.680;23.364;2022-08-25T07:49:40;17.67;;;10.50;;
5690;SDS011;2870;42.680;23.364;2022-08-25T07:52:08;27.47;;;10.93;;
5690;SDS011;2870;42.680;23.364;2022-08-25T07:54:36;30.03;;;11.50;;
5690;SDS011;2870;42.680;23.364;2022-08-25T07:57:03;25.40;;;10.17;;
5690;SDS011;2870;42.680;23.364;2022-08-25T07:59:31;20.93;;;10.00;;
5690;SDS011;2870;42.680;23.364;2022-08-25T08:01:58;27.33;;;10.63;;
5690;SDS011;2870;42.680;23.364;2022-08-25T08:04:25;30.07;;;10.50;;
5690;SDS011;2870;42.680;23.364;2022-08-25T08:06:51;36.13;;;10.10;;
5690;SDS011;2870;42.680;23.364;2022-08-25T08:09:18;29.93;;;10.80;;
5690;SDS011;2870;42.680;23.364;2022-08-25T08:11:46;27.57;;;9.90;;
5690;SDS011;2870;42.680;23.364;2022-08-25T08:14:13;31.03;;;9.00;;
5690;SDS011;2870;42.680;23.364;2022-08-25T08:16:41;28.80;;;10.73;;
5690;SDS011;2870;42.680;23.364;2022-08-25T08:19:07;28.77;;;9.63;;
5690;SDS011;2870;42.680;23.364;2022-08-25T08:21:34;30.20;;;8.80;;
5690;SDS011;2870;42.680;23.364;2022-08-25T08:24:02;29.90;;;9.40;;
5690;SDS011;2870;42.680;23.364;2022-08-25T08:26:29;38.53;;;9.50;;
5690;SDS011;2870;42.680;23.364;2022-08-25T08:28:58;27.70;;;9.20;;
5690;SDS011;2870;42.680;23.364;2022-08-25T08:31:26;24.53;;;9.17;;
5690;SDS011;2870;42.680;23.364;2022-08-25T08:33:53;23.63;;;8.87;;
5690;SDS011;2870;42.680;23.364;2022-08-25T08:36:21;37.13;;;8.40;;
5690;SDS011;2870;42.680;23.364;2022-08-25T08:38:50;42.90;;;9.80;;
5690;SDS011;2870;42.680;23.364;2022-08-25T08:41:23;27.40;;;9.17;;
5690;SDS011;2870;42.680;23.364;2022-08-25T08:44:26;29.23;;;8.30;;
5690;SDS011;2870;42.680;23.364;2022-08-25T08:46:58;30.80;;;6.90;;
5690;SDS011;2870;42.680;23.364;2022-08-25T08:49:31;36.33;;;8.07;;
5690;SDS011;2870;42.680;23.364;2022-08-25T08:52:03;50.97;;;7.57;;
5690;SDS011;2870;42.680;23.364;2022-08-25T08:54:33;24.87;;;6.90;;
5690;SDS011;2870;42.680;23.364;2022-08-25T08:57:04;40.90;;;7.53;;
5690;SDS011;2870;42.680;23.364;2022-08-25T08:59:40;27.13;;;7.03;;
5690;SDS011;2870;42.680;23.364;2022-08-25T09:02:15;32.90;;;7.97;;
5690;SDS011;2870;42.680;23.364;2022-08-25T09:05:01;33.87;;;7.20;;
5690;SDS011;2870;42.680;23.364;2022-08-25T09:07:33;34.77;;;6.17;;
5690;SDS011;2870;42.680;23.364;2022-08-25T09:10:05;35.67;;;7.43;;
5690;SDS011;2870;42.680;23.364;2022-08-25T09:12:33;33.17;;;6.93;;
5690;SDS011;2870;42.680;23.364;2022-08-25T09:15:12;26.07;;;6.67;;
5690;SDS011;2870;42.680;23.364;2022-08-25T09:17:56;38.63;;;6.97;;
5690;SDS011;2870;42.680;23.364;2022-08-25T09:20:44;30.57;;;6.80;;
5690;SDS011;2870;42.680;23.364;2022-08-25T09:23:20;34.00;;;7.07;;
5690;SDS011;2870;42.680;23.364;2022-08-25T09:25:59;33.60;;;7.57;;
5690;SDS011;2870;42.680;23.364;2022-08-25T09:28:34;25.97;;;6.70;;
5690;SDS011;2870;42.680;23.364;2022-08-25T09:31:11;49.23;;;7.40;;
5690;SDS011;2870;42.680;23.364;2022-08-25T09:33:43;54.53;;;7.53;;
5690;SDS011;2870;42.680;23.364;2022-08-25T09:36:10;36.47;;;5.83;;
5690;SDS011;2870;42.680;23.364;2022-08-25T09:38:37;28.30;;;6.97;;
5690;SDS011;2870;42.680;23.364;2022-08-25T09:41:05;33.03;;;6.90;;
5690;SDS011;2870;42.680;23.364;2022-08-25T09:43:34;30.20;;;6.20;;
5690;SDS011;2870;42.680;23.364;2022-08-25T09:46:05;25.83;;;4.97;;
5690;SDS011;2870;42.680;23.364;2022-08-25T09:48:42;29.80;;;5.90;;
5690;SDS011;2870;42.680;23.364;2022-08-25T09:51:15;38.57;;;6.93;;
5690;SDS011;2870;42.680;23.364;2022-08-25T09:53:48;24.77;;;5.33;;
5690;SDS011;2870;42.680;23.364;2022-08-25T09:56:18;30.03;;;5.27;;
5690;SDS011;2870;42.680;23.364;2022-08-25T09:58:47;29.57;;;5.27;;
5690;SDS011;2870;42.680;23.364;2022-08-25T10:01:16;41.60;;;6.10;;
5690;SDS011;2870;42.680;23.364;2022-08-25T10:03:52;33.07;;;7.03;;
5690;SDS011;2870;42.680;23.364;2022-08-25T10:06:25;27.77;;;5.93;;
5690;SDS011;2870;42.680;23.364;2022-08-25T10:08:55;53.93;;;7.17;;
5690;SDS011;2870;42.680;23.364;2022-08-25T10:11:31;24.27;;;5.93;;
5690;SDS011;2870;42.680;23.364;2022-08-25T10:14:03;35.13;;;6.27;;
5690;SDS011;2870;42.680;23.364;2022-08-25T10:16:41;33.63;;;6.27;;
5690;SDS011;2870;42.680;23.364;2022-08-25T10:19:09;34.70;;;6.47;;
5690;SDS011;2870;42.680;23.364;2022-08-25T10:21:37;42.57;;;5.47;;
5690;SDS011;2870;42.680;23.364;2022-08-25T10:24:06;39.37;;;6.37;;
5690;SDS011;2870;42.680;23.364;2022-08-25T10:26:41;38.60;;;5.43;;
5690;SDS011;2870;42.680;23.364;2022-08-25T10:29:27;27.67;;;5.00;;
5690;SDS011;2870;42.680;23.364;2022-08-25T10:32:11;38.40;;;5.63;;
5690;SDS011;2870;42.680;23.364;2022-08-25T10:34:43;39.20;;;5.07;;
5690;SDS011;2870;42.680;23.364;2022-08-25T10:37:14;40.07;;;5.53;;
5690;SDS011;2870;42.680;23.364;2022-08-25T10:39:53;25.40;;;4.73;;
5690;SDS011;2870;42.680;23.364;2022-08-25T10:42:29;42.30;;;6.80;;
5690;SDS011;2870;42.680;23.364;2022-08-25T10:45:05;30.13;;;5.30;;
5690;SDS011;2870;42.680;23.364;2022-08-25T10:48:07;30.23;;;5.63;;
5690;SDS011;2870;42.680;23.364;2022-08-25T10:50:58;26.27;;;5.40;;
5690;SDS011;2870;42.680;23.364;2022-08-25T10:53:33;15.40;;;4.90;;
5690;SDS011;2870;42.680;23.364;2022-08-25T10:56:10;22.53;;;5.33;;
5690;SDS011;2870;42.680;23.364;2022-08-25T11:01:39;27.90;;;5.63;;
5690;SDS011;2870;42.680;23.364;2022-08-25T11:04:14;35.20;;;5.13;;
5690;SDS011;2870;42.680;23.364;2022-08-25T11:06:47;40.67;;;6.13;;
5690;SDS011;2870;42.680;23.364;2022-08-25T11:09:22;35.17;;;6.17;;
5690;SDS011;2870;42.680;23.364;2022-08-25T11:11:56;46.30;;;6.83;;
5690;SDS011;2870;42.680;23.364;2022-08-25T11:14:27;25.23;;;5.50;;
5690;SDS011;2870;42.680;23.364;2022-08-25T11:17:00;18.30;;;5.67;;
5690;SDS011;2870;42.680;23.364;2022-08-25T11:19:34;42.10;;;6.10;;
5690;SDS011;2870;42.680;23.364;2022-08-25T11:22:03;24.23;;;5.80;;
5690;SDS011;2870;42.680;23.364;2022-08-25T11:24:41;27.00;;;6.10;;
5690;SDS011;2870;42.680;23.364;2022-08-25T11:27:17;27.53;;;5.20;;
5690;SDS011;2870;42.680;23.364;2022-08-25T11:29:57;33.57;;;6.10;;
5690;SDS011;2870;42.680;23.364;2022-08-25T11:32:28;28.83;;;6.17;;
5690;SDS011;2870;42.680;23.364;2022-08-25T11:35:01;26.83;;;4.87;;
5690;SDS011;2870;42.680;23.364;2022-08-25T11:37:30;22.03;;;4.90;;
5690;SDS011;2870;42.680;23.364;2022-08-25T11:42:49;23.93;;;5.60;;
5690;SDS011;2870;42.680;23.364;2022-08-25T11:45:29;17.30;;;5.70;;
5690;SDS011;2870;42.680;23.364;2022-08-25T11:48:19;14.73;;;5.50;;
5690;SDS011;2870;42.680;23.364;2022-08-25T11:50:56;21.97;;;5.20;;
5690;SDS011;2870;42.680;23.364;2022-08-25T11:53:26;39.63;;;6.27;;
5690;SDS011;2870;42.680;23.364;2022-08-25T11:55:56;24.00;;;5.70;;
5690;SDS011;2870;42.680;23.364;2022-08-25T11:58:32;20.13;;;5.43;;
5690;SDS011;2870;42.680;23.364;2022-08-25T12:01:05;25.33;;;5.53;;
5690;SDS011;2870;42.680;23.364;2022-08-25T12:03:51;20.73;;;6.00;;
5690;SDS011;2870;42.680;23.364;2022-08-25T12:06:22;28.30;;;5.87;;
5690;SDS011;2870;42.680;23.364;2022-08-25T12:08:53;32.27;;;6.73;;
5690;SDS011;2870;42.680;23.364;2022-08-25T12:11:44;21.13;;;5.33;;
5690;SDS011;2870;42.680;23.364;2022-08-25T12:14:40;15.03;;;5.30;;
5690;SDS011;2870;42.680;23.364;2022-08-25T12:17:16;19.13;;;5.87;;
5690;SDS011;2870;42.680;23.364;2022-08-25T12:19:52;21.97;;;5.20;;
5690;SDS011;2870;42.680;23.364;2022-08-25T12:25:24;24.63;;;4.90;;
5690;SDS011;2870;42.680;23.364;2022-08-25T12:28:02;28.30;;;5.00;;
5690;SDS011;2870;42.680;23.364;2022-08-25T12:30:37;21.50;;;4.87;;
5690;SDS011;2870;42.680;23.364;2022-08-25T12:33:14;11.07;;;5.00;;
5690;SDS011;2870;42.680;23.364;2022-08-25T12:35:51;20.03;;;4.77;;
5690;SDS011;2870;42.680;23.364;2022-08-25T12:38:27;18.33;;;5.07;;
5690;SDS011;2870;42.680;23.364;2022-08-25T12:40:59;18.53;;;5.00;;
5690;SDS011;2870;42.680;23.364;2022-08-25T12:43:30;21.23;;;6.50;;
5690;SDS011;2870;42.680;23.364;2022-08-25T12:48:59;23.30;;;5.30;;
5690;SDS011;2870;42.680;23.364;2022-08-25T12:51:27;24.00;;;5.90;;
5690;SDS011;2870;42.680;23.364;2022-08-25T12:54:14;31.23;;;5.50;;
5690;SDS011;2870;42.680;23.364;2022-08-25T12:56:46;19.60;;;5.80;;
5690;SDS011;2870;42.680;23.364;2022-08-25T12:59:19;27.20;;;6.10;;
5690;SDS011;2870;42.680;23.364;2022-08-25T13:01:53;17.10;;;5.70;;
5690;SDS011;2870;42.680;23.364;2022-08-25T13:04:57;23.23;;;5.00;;
5690;SDS011;2870;42.680;23.364;2022-08-25T13:07:41;13.00;;;5.03;;
5690;SDS011;2870;42.680;23.364;2022-08-25T13:10:28;22.43;;;5.63;;
5690;SDS011;2870;42.680;23.364;2022-08-25T13:13:09;23.73;;;5.97;;
5690;SDS011;2870;42.680;23.364;2022-08-25T13:15:41;19.10;;;4.97;;
5690;SDS011;2870;42.680;23.364;2022-08-25T13:18:14;19.53;;;5.00;;
5690;SDS011;2870;42.680;23.364;2022-08-25T13:20:43;34.23;;;5.97;;
5690;SDS011;2870;42.680;23.364;2022-08-25T13:23:11;19.93;;;5.90;;
5690;SDS011;2870;42.680;23.364;2022-08-25T13:25:46;18.63;;;5.43;;
5690;SDS011;2870;42.680;23.364;2022-08-25T13:28:23;21.47;;;5.70;;
5690;SDS011;2870;42.680;23.364;2022-08-25T13:31:04;27.63;;;9.10;;
5690;SDS011;2870;42.680;23.364;2022-08-25T13:33:33;23.67;;;5.60;;
5690;SDS011;2870;42.680;23.364;2022-08-25T13:36:01;16.43;;;5.70;;
5690;SDS011;2870;42.680;23.364;2022-08-25T13:38:47;28.87;;;6.70;;
5690;SDS011;2870;42.680;23.364;2022-08-25T13:41:17;24.07;;;5.80;;
5690;SDS011;2870;42.680;23.364;2022-08-25T13:43:47;19.20;;;5.67;;
5690;SDS011;2870;42.680;23.364;2022-08-25T13:46:19;30.57;;;5.00;;
5690;SDS011;2870;42.680;23.364;2022-08-25T13:48:46;26.83;;;5.30;;
5690;SDS011;2870;42.680;23.364;2022-08-25T13:51:20;25.83;;;5.03;;
5690;SDS011;2870;42.680;23.364;2022-08-25T13:53:50;32.97;;;5.63;;
5690;SDS011;2870;42.680;23.364;2022-08-25T13:56:25;38.83;;;5.87;;
5690;SDS011;2870;42.680;23.364;2022-08-25T13:58:56;33.00;;;5.40;;
5690;SDS011;2870;42.680;23.364;2022-08-25T14:01:25;18.17;;;5.03;;
5690;SDS011;2870;42.680;23.364;2022-08-25T14:03:55;19.70;;;5.00;;
5690;SDS011;2870;42.680;23.364;2022-08-25T14:06:42;26.27;;;6.03;;
5690;SDS011;2870;42.680;23.364;2022-08-25T14:09:12;26.33;;;5.97;;
5690;SDS011;2870;42.680;23.364;2022-08-25T14:11:43;26.50;;;6.30;;
5690;SDS011;2870;42.680;23.364;2022-08-25T14:14:12;29.80;;;5.93;;
5690;SDS011;2870;42.680;23.364;2022-08-25T14:16:58;37.73;;;6.00;;
5690;SDS011;2870;42.680;23.364;2022-08-25T14:19:26;35.70;;;5.83;;
5690;SDS011;2870;42.680;23.364;2022-08-25T14:21:53;30.40;;;5.63;;
5690;SDS011;2870;42.680;23.364;2022-08-25T14:24:23;32.60;;;5.53;;
5690;SDS011;2870;42.680;23.364;2022-08-25T14:26:52;37.50;;;5.30;;
5690;SDS011;2870;42.680;23.364;2022-08-25T14:29:19;35.03;;;6.13;;
5690;SDS011;2870;42.680;23.364;2022-08-25T14:31:46;21.20;;;5.00;;
5690;SDS011;2870;42.680;23.364;2022-08-25T14:34:14;34.37;;;5.77;;
5690;SDS011;2870;42.680;23.364;2022-08-25T14:36:43;18.10;;;5.20;;
5690;SDS011;2870;42.680;23.364;2022-08-25T14:39:10;22.33;;;5.40;;
5690;SDS011;2870;42.680;23.364;2022-08-25T14:41:38;23.50;;;5.10;;
5690;SDS011;2870;42.680;23.364;2022-08-25T14:44:08;32.57;;;6.47;;
5690;SDS011;2870;42.680;23.364;2022-08-25T14:46:36;37.17;;;7.47;;
5690;SDS011;2870;42.680;23.364;2022-08-25T14:49:07;37.40;;;5.43;;
5690;SDS011;2870;42.680;23.364;2022-08-25T14:51:37;23.73;;;5.13;;
5690;SDS011;2870;42.680;23.364;2022-08-25T14:54:10;33.80;;;6.40;;
5690;SDS011;2870;42.680;23.364;2022-08-25T14:56:42;31.43;;;5.63;;
5690;SDS011;2870;42.680;23.364;2022-08-25T14:59:11;22.17;;;5.73;;
5690;SDS011;2870;42.680;23.364;2022-08-25T15:01:38;21.90;;;5.40;;
5690;SDS011;2870;42.680;23.364;2022-08-25T15:04:06;25.10;;;5.40;;
5690;SDS011;2870;42.680;23.364;2022-08-25T15:06:37;19.77;;;4.40;;
5690;SDS011;2870;42.680;23.364;2022-08-25T15:09:07;30.40;;;5.50;;
5690;SDS011;2870;42.680;23.364;2022-08-25T15:11:37;29.87;;;6.13;;